sensor_id;sensor_type;location;lat;lon;timestamp;temperature;humidity
18948;DHT22;9607;51.600;7.558;2023-08-21T00:01:05;17.50;99.90
18948;DHT22;9607;51.600;7.558;2023-08-21T00:03:35;17.50;99.90
18948;DHT22;9607;51.600;7.558;2023-08-21T00:06:02;17.50;99.90
18948;DHT22;9607;51.600;7.558;2023-08-21T00:08:29;17.50;99.90
18948;DHT22;9607;51.600;7.558;2023-08-21T00:10:56;17.50;99.90
18948;DHT22;9607;51.600;7.558;2023-08-21T00:13:23;17.60;99.90
18948;DHT22;9607;51.600;7.558;2023-08-21T00:15:51;17.50;99.90
18948;DHT22;9607;51.600;7.558;2023-08-21T00:18:18;17.50;99.90
18948;DHT22;9607;51.600;7.558;2023-08-21T00:20:45;17.50;99.90
18948;DHT22;9607;51.600;7.558;2023-08-21T00:23:12;17.50;99.90
18948;DHT22;9607;51.600;7.558;2023-08-21T00:25:39;17.50;99.90
18948;DHT22;9607;51.600;7.558;2023-08-21T00:28:06;17.50;99.90
18948;DHT22;9607;51.600;7.558;2023-08-21T00:30:32;17.40;99.90
18948;DHT22;9607;51.600;7.558;2023-08-21T00:33:00;17.50;99.90
18948;DHT22;9607;51.600;7.558;2023-08-21T00:35:27;17.50;99.90
18948;DHT22;9607;51.600;7.558;2023-08-21T00:37:54;17.50;99.90
18948;DHT22;9607;51.600;7.558;2023-08-21T00:40:21;17.40;99.90
18948;DHT22;9607;51.600;7.558;2023-08-21T00:42:47;17.50;99.90
18948;DHT22;9607;51.600;7.558;2023-08-21T00:45:14;17.50;99.90
18948;DHT22;9607;51.600;7.558;2023-08-21T00:47:43;17.50;99.90
18948;DHT22;9607;51.600;7.558;2023-08-21T00:50:11;17.50;99.90
18948;DHT22;9607;51.600;7.558;2023-08-21T00:52:42;17.50;99.90
18948;DHT22;9607;51.600;7.558;2023-08-21T00:55:09;17.50;99.90
18948;DHT22;9607;51.600;7.558;2023-08-21T00:57:37;17.50;99.90
18948;DHT22;9607;51.600;7.558;2023-08-21T01:00:05;17.50;99.90
18948;DHT22;9607;51.600;7.558;2023-08-21T01:02:33;17.50;99.90
18948;DHT22;9607;51.600;7.558;2023-08-21T01:05:00;17.50;99.90
18948;DHT22;9607;51.600;7.558;2023-08-21T01:07:27;17.50;99.90
18948;DHT22;9607;51.600;7.558;2023-08-21T01:10:01;17.40;99.90
18948;DHT22;9607;51.600;7.558;2023-08-21T01:12:33;17.40;99.90
18948;DHT22;9607;51.600;7.558;2023-08-21T01:15:04;17.40;99.90
18948;DHT22;9607;51.600;7.558;2023-08-21T01:17:34;17.40;99.90
18948;DHT22;9607;51.600;7.558;2023-08-21T01:20:02;17.40;99.90
18948;DHT22;9607;51.600;7.558;2023-08-21T01:22:37;17.30;99.90
18948;DHT22;9607;51.600;7.558;2023-08-21T01:25:07;17.30;99.90
18948;DHT22;9607;51.600;7.558;2023-08-21T01:27:34;17.30;99.90
18948;DHT22;9607;51.600;7.558;2023-08-21T01:30:02;17.30;99.90
18948;DHT22;9607;51.600;7.558;2023-08-21T01:32:35;17.30;99.90
18948;DHT22;9607;51.600;7.558;2023-08-21T01:35:05;17.30;99.90
18948;DHT22;9607;51.600;7.558;2023-08-21T01:37:32;17.40;99.90
18948;DHT22;9607;51.600;7.558;2023-08-21T01:40:00;17.30;99.90
18948;DHT22;9607;51.600;7.558;2023-08-21T01:42:28;17.30;99.90
18948;DHT22;9607;51.600;7.558;2023-08-21T01:44:55;17.30;99.90
18948;DHT22;9607;51.600;7.558;2023-08-21T01:47:22;17.30;99.90
18948;DHT22;9607;51.600;7.558;2023-08-21T01:49:49;17.30;99.90
18948;DHT22;9607;51.600;7.558;2023-08-21T01:52:17;17.20;99.90
18948;DHT22;9607;51.600;7.558;2023-08-21T01:54:44;17.20;99.90
18948;DHT22;9607;51.600;7.558;2023-08-21T01:57:13;17.20;99.90
18948;DHT22;9607;51.600;7.558;2023-08-21T01:59:41;17.20;99.90
18948;DHT22;9607;51.600;7.558;2023-08-21T02:02:08;17.20;99.90
18948;DHT22;9607;51.600;7.558;2023-08-21T02:04:35;17.20;99.90
18948;DHT22;9607;51.600;7.558;2023-08-21T02:07:02;17.20;99.90
18948;DHT22;9607;51.600;7.558;2023-08-21T02:09:28;17.20;99.90
18948;DHT22;9607;51.600;7.558;2023-08-21T02:11:55;17.20;99.90
18948;DHT22;9607;51.600;7.558;2023-08-21T02:14:22;17.10;99.90
18948;DHT22;9607;51.600;7.558;2023-08-21T02:16:50;17.10;99.90
18948;DHT22;9607;51.600;7.558;2023-08-21T02:19:17;17.00;99.90
18948;DHT22;9607;51.600;7.558;2023-08-21T02:21:44;17.00;99.90
18948;DHT22;9607;51.600;7.558;2023-08-21T02:24:10;17.00;99.90
18948;DHT22;9607;51.600;7.558;2023-08-21T02:26:37;16.90;99.90
18948;DHT22;9607;51.600;7.558;2023-08-21T02:29:04;16.90;99.90
18948;DHT22;9607;51.600;7.558;2023-08-21T02:31:31;16.90;99.90
18948;DHT22;9607;51.600;7.558;2023-08-21T02:33:59;16.90;99.90
18948;DHT22;9607;51.600;7.558;2023-08-21T02:36:26;16.90;99.90
18948;DHT22;9607;51.600;7.558;2023-08-21T02:38:52;17.00;99.90
18948;DHT22;9607;51.600;7.558;2023-08-21T02:41:19;17.00;99.90
18948;DHT22;9607;51.600;7.558;2023-08-21T02:43:46;17.10;99.90
18948;DHT22;9607;51.600;7.558;2023-08-21T02:46:13;17.00;99.90
18948;DHT22;9607;51.600;7.558;2023-08-21T02:48:40;17.10;99.90
18948;DHT22;9607;51.600;7.558;2023-08-21T02:51:08;17.10;99.90
18948;DHT22;9607;51.600;7.558;2023-08-21T02:53:34;17.10;99.90
18948;DHT22;9607;51.600;7.558;2023-08-21T02:56:01;17.10;99.90
18948;DHT22;9607;51.600;7.558;2023-08-21T02:58:28;17.00;99.90
18948;DHT22;9607;51.600;7.558;2023-08-21T03:00:55;17.10;99.90
18948;DHT22;9607;51.600;7.558;2023-08-21T03:03:22;17.00;99.90
18948;DHT22;9607;51.600;7.558;2023-08-21T03:05:49;17.00;99.90
18948;DHT22;9607;51.600;7.558;2023-08-21T03:08:17;17.00;99.90
18948;DHT22;9607;51.600;7.558;2023-08-21T03:10:44;16.90;99.90
18948;DHT22;9607;51.600;7.558;2023-08-21T03:13:10;16.90;99.90
18948;DHT22;9607;51.600;7.558;2023-08-21T03:15:37;16.80;99.90
18948;DHT22;9607;51.600;7.558;2023-08-21T03:18:04;16.80;99.90
18948;DHT22;9607;51.600;7.558;2023-08-21T03:20:31;16.70;99.90
18948;DHT22;9607;51.600;7.558;2023-08-21T03:22:58;16.60;99.90
18948;DHT22;9607;51.600;7.558;2023-08-21T03:25:27;16.60;99.90
18948;DHT22;9607;51.600;7.558;2023-08-21T03:27:54;16.50;99.90
18948;DHT22;9607;51.600;7.558;2023-08-21T03:30:21;16.40;99.90
18948;DHT22;9607;51.600;7.558;2023-08-21T03:32:50;16.40;99.90
18948;DHT22;9607;51.600;7.558;2023-08-21T03:35:17;16.40;99.90
18948;DHT22;9607;51.600;7.558;2023-08-21T03:37:44;16.40;99.90
18948;DHT22;9607;51.600;7.558;2023-08-21T03:40:11;16.30;99.90
18948;DHT22;9607;51.600;7.558;2023-08-21T03:42:39;16.30;99.90
18948;DHT22;9607;51.600;7.558;2023-08-21T03:45:07;16.30;99.90
18948;DHT22;9607;51.600;7.558;2023-08-21T03:47:34;16.20;99.90
18948;DHT22;9607;51.600;7.558;2023-08-21T03:50:01;16.20;99.90
18948;DHT22;9607;51.600;7.558;2023-08-21T03:52:28;16.20;99.90
18948;DHT22;9607;51.600;7.558;2023-08-21T03:54:54;16.20;99.90
18948;DHT22;9607;51.600;7.558;2023-08-21T03:57:21;16.20;99.90
18948;DHT22;9607;51.600;7.558;2023-08-21T03:59:49;16.20;99.90
18948;DHT22;9607;51.600;7.558;2023-08-21T04:02:16;16.20;99.90
18948;DHT22;9607;51.600;7.558;2023-08-21T04:04:43;16.20;99.90
18948;DHT22;9607;51.600;7.558;2023-08-21T04:07:10;16.20;99.90
18948;DHT22;9607;51.600;7.558;2023-08-21T04:09:36;16.10;99.90
18948;DHT22;9607;51.600;7.558;2023-08-21T04:12:04;16.10;99.90
18948;DHT22;9607;51.600;7.558;2023-08-21T04:14:30;16.10;99.90
18948;DHT22;9607;51.600;7.558;2023-08-21T04:17:02;16.00;99.90
18948;DHT22;9607;51.600;7.558;2023-08-21T04:19:29;16.00;99.90
18948;DHT22;9607;51.600;7.558;2023-08-21T04:21:58;16.00;99.90
18948;DHT22;9607;51.600;7.558;2023-08-21T04:24:25;15.90;99.90
18948;DHT22;9607;51.600;7.558;2023-08-21T04:26:52;15.90;99.90
18948;DHT22;9607;51.600;7.558;2023-08-21T04:29:19;15.90;99.90
18948;DHT22;9607;51.600;7.558;2023-08-21T04:31:46;15.90;99.90
18948;DHT22;9607;51.600;7.558;2023-08-21T04:34:14;15.90;99.90
18948;DHT22;9607;51.600;7.558;2023-08-21T04:36:41;15.90;99.90
18948;DHT22;9607;51.600;7.558;2023-08-21T04:39:07;15.80;99.90
18948;DHT22;9607;51.600;7.558;2023-08-21T04:41:35;15.80;99.90
18948;DHT22;9607;51.600;7.558;2023-08-21T04:44:02;15.80;99.90
18948;DHT22;9607;51.600;7.558;2023-08-21T04:46:29;15.80;99.90
18948;DHT22;9607;51.600;7.558;2023-08-21T04:48:56;15.80;99.90
18948;DHT22;9607;51.600;7.558;2023-08-21T04:51:24;15.80;99.90
18948;DHT22;9607;51.600;7.558;2023-08-21T04:53:51;15.80;99.90
18948;DHT22;9607;51.600;7.558;2023-08-21T04:56:18;15.90;99.90
18948;DHT22;9607;51.600;7.558;2023-08-21T04:58:45;15.90;99.90
18948;DHT22;9607;51.600;7.558;2023-08-21T05:01:12;16.00;99.90
18948;DHT22;9607;51.600;7.558;2023-08-21T05:03:39;16.10;99.90
18948;DHT22;9607;51.600;7.558;2023-08-21T05:06:05;16.10;99.90
18948;DHT22;9607;51.600;7.558;2023-08-21T05:08:34;16.20;99.90
18948;DHT22;9607;51.600;7.558;2023-08-21T05:11:01;16.30;99.90
18948;DHT22;9607;51.600;7.558;2023-08-21T05:13:28;16.30;99.90
18948;DHT22;9607;51.600;7.558;2023-08-21T05:15:55;16.30;99.90
18948;DHT22;9607;51.600;7.558;2023-08-21T05:18:23;16.40;99.90
18948;DHT22;9607;51.600;7.558;2023-08-21T05:20:52;16.40;99.90
18948;DHT22;9607;51.600;7.558;2023-08-21T05:23:18;16.50;99.90
18948;DHT22;9607;51.600;7.558;2023-08-21T05:25:48;16.50;99.90
18948;DHT22;9607;51.600;7.558;2023-08-21T05:28:15;16.50;99.90
18948;DHT22;9607;51.600;7.558;2023-08-21T05:30:46;16.60;99.90
18948;DHT22;9607;51.600;7.558;2023-08-21T05:33:13;16.70;99.90
18948;DHT22;9607;51.600;7.558;2023-08-21T05:35:39;16.70;99.90
18948;DHT22;9607;51.600;7.558;2023-08-21T05:38:08;16.80;99.90
18948;DHT22;9607;51.600;7.558;2023-08-21T05:40:34;16.90;99.90
18948;DHT22;9607;51.600;7.558;2023-08-21T05:43:03;16.90;99.90
18948;DHT22;9607;51.600;7.558;2023-08-21T05:45:30;17.00;99.90
18948;DHT22;9607;51.600;7.558;2023-08-21T05:47:57;17.10;99.90
18948;DHT22;9607;51.600;7.558;2023-08-21T05:50:24;17.10;99.90
18948;DHT22;9607;51.600;7.558;2023-08-21T05:52:51;17.30;99.90
18948;DHT22;9607;51.600;7.558;2023-08-21T05:55:20;17.40;99.90
18948;DHT22;9607;51.600;7.558;2023-08-21T05:57:47;17.50;99.90
18948;DHT22;9607;51.600;7.558;2023-08-21T06:00:16;17.70;99.90
18948;DHT22;9607;51.600;7.558;2023-08-21T06:02:43;17.80;99.90
18948;DHT22;9607;51.600;7.558;2023-08-21T06:05:10;17.90;99.90
18948;DHT22;9607;51.600;7.558;2023-08-21T06:07:37;18.10;99.90
18948;DHT22;9607;51.600;7.558;2023-08-21T06:10:06;18.30;99.90
18948;DHT22;9607;51.600;7.558;2023-08-21T06:12:33;18.40;99.90
18948;DHT22;9607;51.600;7.558;2023-08-21T06:15:00;18.50;99.90
18948;DHT22;9607;51.600;7.558;2023-08-21T06:17:29;18.60;99.90
18948;DHT22;9607;51.600;7.558;2023-08-21T06:19:56;18.70;99.90
18948;DHT22;9607;51.600;7.558;2023-08-21T06:22:24;18.80;99.90
18948;DHT22;9607;51.600;7.558;2023-08-21T06:24:50;18.80;99.90
18948;DHT22;9607;51.600;7.558;2023-08-21T06:27:17;18.90;99.90
18948;DHT22;9607;51.600;7.558;2023-08-21T06:29:44;18.90;99.90
18948;DHT22;9607;51.600;7.558;2023-08-21T06:32:11;19.00;99.90
18948;DHT22;9607;51.600;7.558;2023-08-21T06:34:39;19.10;99.90
18948;DHT22;9607;51.600;7.558;2023-08-21T06:37:06;19.10;99.90
18948;DHT22;9607;51.600;7.558;2023-08-21T06:39:33;19.20;99.90
18948;DHT22;9607;51.600;7.558;2023-08-21T06:42:00;19.20;99.90
18948;DHT22;9607;51.600;7.558;2023-08-21T06:44:27;19.30;99.90
18948;DHT22;9607;51.600;7.558;2023-08-21T06:46:54;19.40;99.90
18948;DHT22;9607;51.600;7.558;2023-08-21T06:49:21;19.50;99.90
18948;DHT22;9607;51.600;7.558;2023-08-21T06:51:50;19.50;99.90
18948;DHT22;9607;51.600;7.558;2023-08-21T06:54:17;19.70;99.90
18948;DHT22;9607;51.600;7.558;2023-08-21T06:56:43;19.80;99.90
18948;DHT22;9607;51.600;7.558;2023-08-21T06:59:10;19.90;99.90
18948;DHT22;9607;51.600;7.558;2023-08-21T07:01:37;19.90;99.90
18948;DHT22;9607;51.600;7.558;2023-08-21T07:04:04;20.10;99.90
18948;DHT22;9607;51.600;7.558;2023-08-21T07:06:31;20.20;99.90
18948;DHT22;9607;51.600;7.558;2023-08-21T07:08:59;20.30;99.90
18948;DHT22;9607;51.600;7.558;2023-08-21T07:11:26;20.50;99.90
18948;DHT22;9607;51.600;7.558;2023-08-21T07:13:53;20.60;99.90
18948;DHT22;9607;51.600;7.558;2023-08-21T07:16:20;20.80;99.90
18948;DHT22;9607;51.600;7.558;2023-08-21T07:18:46;20.90;99.90
18948;DHT22;9607;51.600;7.558;2023-08-21T07:21:13;21.00;99.90
18948;DHT22;9607;51.600;7.558;2023-08-21T07:23:40;21.10;99.90
18948;DHT22;9607;51.600;7.558;2023-08-21T07:26:08;21.20;99.90
18948;DHT22;9607;51.600;7.558;2023-08-21T07:28:35;21.30;99.90
18948;DHT22;9607;51.600;7.558;2023-08-21T07:31:02;21.50;99.90
18948;DHT22;9607;51.600;7.558;2023-08-21T07:33:29;21.80;99.90
18948;DHT22;9607;51.600;7.558;2023-08-21T07:36:00;22.00;99.90
18948;DHT22;9607;51.600;7.558;2023-08-21T07:38:27;22.30;99.90
18948;DHT22;9607;51.600;7.558;2023-08-21T07:41:03;22.40;99.90
18948;DHT22;9607;51.600;7.558;2023-08-21T07:43:31;22.40;99.90
18948;DHT22;9607;51.600;7.558;2023-08-21T07:46:02;22.50;99.90
18948;DHT22;9607;51.600;7.558;2023-08-21T07:48:29;22.60;99.90
18948;DHT22;9607;51.600;7.558;2023-08-21T07:50:56;22.70;99.90
18948;DHT22;9607;51.600;7.558;2023-08-21T07:53:23;23.00;99.90
18948;DHT22;9607;51.600;7.558;2023-08-21T07:55:50;23.20;99.90
18948;DHT22;9607;51.600;7.558;2023-08-21T07:58:18;23.30;99.90
18948;DHT22;9607;51.600;7.558;2023-08-21T08:00:46;23.50;99.90
18948;DHT22;9607;51.600;7.558;2023-08-21T08:03:14;23.70;99.90
18948;DHT22;9607;51.600;7.558;2023-08-21T08:05:41;23.80;99.90
18948;DHT22;9607;51.600;7.558;2023-08-21T08:08:08;23.80;99.90
18948;DHT22;9607;51.600;7.558;2023-08-21T08:10:37;23.80;99.90
18948;DHT22;9607;51.600;7.558;2023-08-21T08:13:04;23.80;99.90
18948;DHT22;9607;51.600;7.558;2023-08-21T08:15:31;23.70;99.90
18948;DHT22;9607;51.600;7.558;2023-08-21T08:18:01;23.70;99.90
18948;DHT22;9607;51.600;7.558;2023-08-21T08:20:28;23.60;99.90
18948;DHT22;9607;51.600;7.558;2023-08-21T08:22:55;23.60;99.90
18948;DHT22;9607;51.600;7.558;2023-08-21T08:25:22;23.50;99.90
18948;DHT22;9607;51.600;7.558;2023-08-21T08:27:49;23.40;99.90
18948;DHT22;9607;51.600;7.558;2023-08-21T08:30:16;23.20;99.90
18948;DHT22;9607;51.600;7.558;2023-08-21T08:32:43;23.10;99.90
18948;DHT22;9607;51.600;7.558;2023-08-21T08:35:12;22.90;99.90
18948;DHT22;9607;51.600;7.558;2023-08-21T08:37:40;22.70;99.90
18948;DHT22;9607;51.600;7.558;2023-08-21T08:40:07;22.60;99.90
18948;DHT22;9607;51.600;7.558;2023-08-21T08:42:35;22.50;99.90
18948;DHT22;9607;51.600;7.558;2023-08-21T08:45:04;22.50;99.90
18948;DHT22;9607;51.600;7.558;2023-08-21T08:47:32;22.50;99.90
18948;DHT22;9607;51.600;7.558;2023-08-21T08:50:02;22.50;99.90
18948;DHT22;9607;51.600;7.558;2023-08-21T08:52:33;22.70;99.90
18948;DHT22;9607;51.600;7.558;2023-08-21T08:55:01;22.80;99.90
18948;DHT22;9607;51.600;7.558;2023-08-21T08:57:29;23.00;99.90
18948;DHT22;9607;51.600;7.558;2023-08-21T08:59:56;23.10;99.90
18948;DHT22;9607;51.600;7.558;2023-08-21T09:02:24;23.30;99.90
18948;DHT22;9607;51.600;7.558;2023-08-21T09:04:51;23.40;99.90
18948;DHT22;9607;51.600;7.558;2023-08-21T09:07:18;23.60;99.90
18948;DHT22;9607;51.600;7.558;2023-08-21T09:09:48;23.80;99.90
18948;DHT22;9607;51.600;7.558;2023-08-21T09:12:16;24.00;99.90
18948;DHT22;9607;51.600;7.558;2023-08-21T09:14:44;24.30;99.90
18948;DHT22;9607;51.600;7.558;2023-08-21T09:17:12;24.60;99.90
18948;DHT22;9607;51.600;7.558;2023-08-21T09:19:39;24.80;99.90
18948;DHT22;9607;51.600;7.558;2023-08-21T09:22:10;25.10;99.90
18948;DHT22;9607;51.600;7.558;2023-08-21T09:24:38;25.30;99.90
18948;DHT22;9607;51.600;7.558;2023-08-21T09:27:13;25.50;99.90
18948;DHT22;9607;51.600;7.558;2023-08-21T09:29:40;25.50;99.90
18948;DHT22;9607;51.600;7.558;2023-08-21T09:32:07;25.50;99.90
18948;DHT22;9607;51.600;7.558;2023-08-21T09:34:35;25.30;99.90
18948;DHT22;9607;51.600;7.558;2023-08-21T09:37:06;25.20;99.90
18948;DHT22;9607;51.600;7.558;2023-08-21T09:39:34;25.20;99.90
18948;DHT22;9607;51.600;7.558;2023-08-21T09:42:04;25.20;99.90
18948;DHT22;9607;51.600;7.558;2023-08-21T09:44:37;25.20;99.90
18948;DHT22;9607;51.600;7.558;2023-08-21T09:47:07;25.20;99.90
18948;DHT22;9607;51.600;7.558;2023-08-21T09:49:35;25.20;99.90
18948;DHT22;9607;51.600;7.558;2023-08-21T09:52:04;25.20;99.90
18948;DHT22;9607;51.600;7.558;2023-08-21T09:54:32;25.40;99.90
18948;DHT22;9607;51.600;7.558;2023-08-21T09:57:02;25.50;99.90
18948;DHT22;9607;51.600;7.558;2023-08-21T09:59:29;25.70;99.90
18948;DHT22;9607;51.600;7.558;2023-08-21T10:01:58;25.80;99.90
18948;DHT22;9607;51.600;7.558;2023-08-21T10:04:25;26.10;99.90
18948;DHT22;9607;51.600;7.558;2023-08-21T10:06:55;26.30;99.90
18948;DHT22;9607;51.600;7.558;2023-08-21T10:09:23;26.50;99.90
18948;DHT22;9607;51.600;7.558;2023-08-21T10:11:52;26.70;99.90
18948;DHT22;9607;51.600;7.558;2023-08-21T10:14:21;27.00;99.90
18948;DHT22;9607;51.600;7.558;2023-08-21T10:16:49;27.20;99.90
18948;DHT22;9607;51.600;7.558;2023-08-21T10:19:18;27.50;99.90
18948;DHT22;9607;51.600;7.558;2023-08-21T10:21:47;27.90;99.90
18948;DHT22;9607;51.600;7.558;2023-08-21T10:24:26;28.20;99.90
18948;DHT22;9607;51.600;7.558;2023-08-21T10:26:54;28.60;99.90
18948;DHT22;9607;51.600;7.558;2023-08-21T10:29:20;28.90;99.90
18948;DHT22;9607;51.600;7.558;2023-08-21T10:31:58;29.10;99.90
18948;DHT22;9607;51.600;7.558;2023-08-21T10:34:32;29.20;99.90
18948;DHT22;9607;51.600;7.558;2023-08-21T10:37:04;29.40;98.20
18948;DHT22;9607;51.600;7.558;2023-08-21T10:39:33;29.50;97.10
18948;DHT22;9607;51.600;7.558;2023-08-21T10:42:04;29.60;96.00
18948;DHT22;9607;51.600;7.558;2023-08-21T10:44:53;29.60;95.50
18948;DHT22;9607;51.600;7.558;2023-08-21T10:47:31;29.50;95.10
18948;DHT22;9607;51.600;7.558;2023-08-21T10:50:02;29.40;94.50
18948;DHT22;9607;51.600;7.558;2023-08-21T10:52:31;29.30;93.90
18948;DHT22;9607;51.600;7.558;2023-08-21T10:55:00;29.20;94.70
18948;DHT22;9607;51.600;7.558;2023-08-21T10:57:29;29.30;94.80
18948;DHT22;9607;51.600;7.558;2023-08-21T10:59:57;29.30;93.30
18948;DHT22;9607;51.600;7.558;2023-08-21T11:02:26;29.20;92.90
18948;DHT22;9607;51.600;7.558;2023-08-21T11:04:54;29.10;93.10
18948;DHT22;9607;51.600;7.558;2023-08-21T11:07:23;29.00;93.90
18948;DHT22;9607;51.600;7.558;2023-08-21T11:09:50;28.90;93.60
18948;DHT22;9607;51.600;7.558;2023-08-21T11:12:18;28.90;92.90
18948;DHT22;9607;51.600;7.558;2023-08-21T11:14:45;28.90;93.20
18948;DHT22;9607;51.600;7.558;2023-08-21T11:17:12;29.00;93.10
18948;DHT22;9607;51.600;7.558;2023-08-21T11:19:40;29.00;94.00
18948;DHT22;9607;51.600;7.558;2023-08-21T11:22:08;29.10;93.50
18948;DHT22;9607;51.600;7.558;2023-08-21T11:24:44;29.10;92.80
18948;DHT22;9607;51.600;7.558;2023-08-21T11:27:13;29.00;93.40
18948;DHT22;9607;51.600;7.558;2023-08-21T11:29:41;29.00;93.80
18948;DHT22;9607;51.600;7.558;2023-08-21T11:32:09;29.00;93.10
18948;DHT22;9607;51.600;7.558;2023-08-21T11:34:36;29.00;93.40
18948;DHT22;9607;51.600;7.558;2023-08-21T11:37:04;29.10;93.70
18948;DHT22;9607;51.600;7.558;2023-08-21T11:39:44;29.00;93.10
18948;DHT22;9607;51.600;7.558;2023-08-21T11:42:12;28.80;93.40
18948;DHT22;9607;51.600;7.558;2023-08-21T11:44:43;28.90;93.20
18948;DHT22;9607;51.600;7.558;2023-08-21T11:47:11;28.80;93.20
18948;DHT22;9607;51.600;7.558;2023-08-21T11:49:39;28.70;93.60
18948;DHT22;9607;51.600;7.558;2023-08-21T11:52:08;28.60;94.10
18948;DHT22;9607;51.600;7.558;2023-08-21T11:54:35;28.70;94.10
18948;DHT22;9607;51.600;7.558;2023-08-21T11:57:07;28.70;93.70
18948;DHT22;9607;51.600;7.558;2023-08-21T11:59:35;28.70;93.40
18948;DHT22;9607;51.600;7.558;2023-08-21T12:02:13;28.70;93.20
18948;DHT22;9607;51.600;7.558;2023-08-21T12:04:40;28.70;93.90
18948;DHT22;9607;51.600;7.558;2023-08-21T12:07:07;28.80;93.70
18948;DHT22;9607;51.600;7.558;2023-08-21T12:09:34;28.90;92.90
18948;DHT22;9607;51.600;7.558;2023-08-21T12:12:00;29.10;92.70
18948;DHT22;9607;51.600;7.558;2023-08-21T12:14:29;29.40;92.40
18948;DHT22;9607;51.600;7.558;2023-08-21T12:16:57;29.80;91.90
18948;DHT22;9607;51.600;7.558;2023-08-21T12:19:24;30.30;91.20
18948;DHT22;9607;51.600;7.558;2023-08-21T12:21:51;30.60;90.50
18948;DHT22;9607;51.600;7.558;2023-08-21T12:24:18;30.90;85.60
18948;DHT22;9607;51.600;7.558;2023-08-21T12:26:45;31.20;87.60
18948;DHT22;9607;51.600;7.558;2023-08-21T12:29:11;31.90;86.30
18948;DHT22;9607;51.600;7.558;2023-08-21T12:31:39;32.20;82.30
18948;DHT22;9607;51.600;7.558;2023-08-21T12:34:06;33.00;77.70
18948;DHT22;9607;51.600;7.558;2023-08-21T12:36:35;34.00;76.50
18948;DHT22;9607;51.600;7.558;2023-08-21T12:39:02;34.80;71.20
18948;DHT22;9607;51.600;7.558;2023-08-21T12:41:30;35.40;67.10
18948;DHT22;9607;51.600;7.558;2023-08-21T12:43:58;35.60;63.20
18948;DHT22;9607;51.600;7.558;2023-08-21T12:46:25;34.90;63.90
18948;DHT22;9607;51.600;7.558;2023-08-21T12:48:54;34.10;64.70
18948;DHT22;9607;51.600;7.558;2023-08-21T12:51:21;33.30;66.10
18948;DHT22;9607;51.600;7.558;2023-08-21T12:53:48;32.70;66.20
18948;DHT22;9607;51.600;7.558;2023-08-21T12:56:16;32.30;68.50
18948;DHT22;9607;51.600;7.558;2023-08-21T12:58:43;31.90;71.10
18948;DHT22;9607;51.600;7.558;2023-08-21T13:01:10;31.70;73.70
18948;DHT22;9607;51.600;7.558;2023-08-21T13:03:38;31.40;74.40
18948;DHT22;9607;51.600;7.558;2023-08-21T13:06:06;31.00;73.10
18948;DHT22;9607;51.600;7.558;2023-08-21T13:08:33;30.70;73.50
18948;DHT22;9607;51.600;7.558;2023-08-21T13:10:59;30.40;75.50
18948;DHT22;9607;51.600;7.558;2023-08-21T13:13:28;30.20;77.70
18948;DHT22;9607;51.600;7.558;2023-08-21T13:15:55;29.90;79.20
18948;DHT22;9607;51.600;7.558;2023-08-21T13:18:21;29.70;79.70
18948;DHT22;9607;51.600;7.558;2023-08-21T13:20:48;29.50;80.40
18948;DHT22;9607;51.600;7.558;2023-08-21T13:23:16;29.30;81.00
18948;DHT22;9607;51.600;7.558;2023-08-21T13:25:44;29.10;81.00
18948;DHT22;9607;51.600;7.558;2023-08-21T13:28:11;29.00;83.70
18948;DHT22;9607;51.600;7.558;2023-08-21T13:30:38;29.00;83.30
18948;DHT22;9607;51.600;7.558;2023-08-21T13:33:04;29.10;84.90
18948;DHT22;9607;51.600;7.558;2023-08-21T13:35:32;29.20;85.10
18948;DHT22;9607;51.600;7.558;2023-08-21T13:37:58;29.40;84.20
18948;DHT22;9607;51.600;7.558;2023-08-21T13:40:27;29.60;84.00
18948;DHT22;9607;51.600;7.558;2023-08-21T13:42:54;29.80;82.60
18948;DHT22;9607;51.600;7.558;2023-08-21T13:45:23;30.00;83.10
18948;DHT22;9607;51.600;7.558;2023-08-21T13:47:50;30.20;81.50
18948;DHT22;9607;51.600;7.558;2023-08-21T13:50:18;30.30;80.90
18948;DHT22;9607;51.600;7.558;2023-08-21T13:52:46;30.20;79.10
18948;DHT22;9607;51.600;7.558;2023-08-21T13:55:13;30.10;80.20
18948;DHT22;9607;51.600;7.558;2023-08-21T13:57:42;30.00;80.80
18948;DHT22;9607;51.600;7.558;2023-08-21T14:00:10;29.90;81.10
18948;DHT22;9607;51.600;7.558;2023-08-21T14:02:38;29.80;81.10
18948;DHT22;9607;51.600;7.558;2023-08-21T14:05:07;29.60;81.20
18948;DHT22;9607;51.600;7.558;2023-08-21T14:07:34;29.60;82.60
18948;DHT22;9607;51.600;7.558;2023-08-21T14:10:02;29.60;82.30
18948;DHT22;9607;51.600;7.558;2023-08-21T14:12:30;29.50;82.90
18948;DHT22;9607;51.600;7.558;2023-08-21T14:14:59;29.30;82.10
18948;DHT22;9607;51.600;7.558;2023-08-21T14:17:26;29.10;82.10
18948;DHT22;9607;51.600;7.558;2023-08-21T14:19:53;29.00;85.40
18948;DHT22;9607;51.600;7.558;2023-08-21T14:22:20;28.70;84.80
18948;DHT22;9607;51.600;7.558;2023-08-21T14:24:47;28.90;86.40
18948;DHT22;9607;51.600;7.558;2023-08-21T14:27:14;29.00;85.50
18948;DHT22;9607;51.600;7.558;2023-08-21T14:29:42;29.10;85.60
18948;DHT22;9607;51.600;7.558;2023-08-21T14:32:10;29.30;84.10
18948;DHT22;9607;51.600;7.558;2023-08-21T14:34:37;29.40;83.00
18948;DHT22;9607;51.600;7.558;2023-08-21T14:37:04;29.30;81.50
18948;DHT22;9607;51.600;7.558;2023-08-21T14:39:30;29.40;85.80
18948;DHT22;9607;51.600;7.558;2023-08-21T14:41:58;29.60;84.80
18948;DHT22;9607;51.600;7.558;2023-08-21T14:44:25;29.90;84.10
18948;DHT22;9607;51.600;7.558;2023-08-21T14:46:53;30.10;83.40
18948;DHT22;9607;51.600;7.558;2023-08-21T14:49:22;30.30;83.10
18948;DHT22;9607;51.600;7.558;2023-08-21T14:51:49;30.40;81.30
18948;DHT22;9607;51.600;7.558;2023-08-21T14:54:16;30.40;79.20
18948;DHT22;9607;51.600;7.558;2023-08-21T14:56:42;30.60;80.90
18948;DHT22;9607;51.600;7.558;2023-08-21T14:59:11;30.80;80.90
18948;DHT22;9607;51.600;7.558;2023-08-21T15:01:38;30.90;80.60
18948;DHT22;9607;51.600;7.558;2023-08-21T15:04:05;31.00;79.50
18948;DHT22;9607;51.600;7.558;2023-08-21T15:06:34;30.90;79.00
18948;DHT22;9607;51.600;7.558;2023-08-21T15:09:02;30.80;77.70
18948;DHT22;9607;51.600;7.558;2023-08-21T15:11:28;30.70;78.90
18948;DHT22;9607;51.600;7.558;2023-08-21T15:13:55;30.50;79.20
18948;DHT22;9607;51.600;7.558;2023-08-21T15:16:22;30.40;78.20
18948;DHT22;9607;51.600;7.558;2023-08-21T15:18:49;30.20;77.80
18948;DHT22;9607;51.600;7.558;2023-08-21T15:21:18;30.10;78.90
18948;DHT22;9607;51.600;7.558;2023-08-21T15:23:46;29.90;79.50
18948;DHT22;9607;51.600;7.558;2023-08-21T15:26:13;29.80;80.20
18948;DHT22;9607;51.600;7.558;2023-08-21T15:28:40;29.90;79.70
18948;DHT22;9607;51.600;7.558;2023-08-21T15:31:07;29.90;79.80
18948;DHT22;9607;51.600;7.558;2023-08-21T15:33:34;29.70;80.00
18948;DHT22;9607;51.600;7.558;2023-08-21T15:36:01;29.60;81.50
18948;DHT22;9607;51.600;7.558;2023-08-21T15:38:28;29.40;82.10
18948;DHT22;9607;51.600;7.558;2023-08-21T15:40:56;29.20;82.60
18948;DHT22;9607;51.600;7.558;2023-08-21T15:43:23;29.00;84.00
18948;DHT22;9607;51.600;7.558;2023-08-21T15:45:51;28.90;84.90
18948;DHT22;9607;51.600;7.558;2023-08-21T15:48:18;28.80;85.30